createdAt,value
2023-01-19T00:00:14.332Z,0
2023-01-19T00:01:58.054Z,0
2023-01-19T00:03:41.672Z,1
2023-01-19T00:05:25.460Z,0
2023-01-19T00:07:09.184Z,0
2023-01-19T00:08:52.681Z,0
2023-01-19T00:10:36.562Z,0
2023-01-19T00:12:20.242Z,0
2023-01-19T00:14:03.911Z,0
2023-01-19T00:15:47.531Z,0
2023-01-19T00:17:31.172Z,0
2023-01-19T00:19:15.037Z,0
2023-01-19T00:20:58.727Z,0
2023-01-19T00:22:42.433Z,0
2023-01-19T00:24:26.138Z,0
2023-01-19T00:26:09.827Z,0
2023-01-19T00:27:53.527Z,0
2023-01-19T00:29:37.250Z,1
2023-01-19T00:31:20.906Z,0
2023-01-19T00:33:04.656Z,0
2023-01-19T00:34:48.364Z,0
2023-01-19T00:36:32.069Z,0
2023-01-19T00:38:15.768Z,0
2023-01-19T00:39:59.507Z,0
2023-01-19T00:41:43.098Z,0
2023-01-19T00:43:26.795Z,1
2023-01-19T00:45:10.547Z,0
2023-01-19T00:46:54.090Z,0
2023-01-19T00:48:37.915Z,0
2023-01-19T00:50:21.494Z,0
2023-01-19T00:52:05.328Z,1
2023-01-19T00:53:49.066Z,0
2023-01-19T00:55:32.723Z,0
2023-01-19T00:57:16.456Z,0
2023-01-19T00:59:00.124Z,0
2023-01-19T01:00:43.757Z,0
2023-01-19T01:02:27.573Z,0
2023-01-19T01:04:11.267Z,0
2023-01-19T01:05:54.936Z,0
2023-01-19T01:07:38.679Z,0
2023-01-19T01:09:22.367Z,0
2023-01-19T01:11:06.059Z,0
2023-01-19T01:12:49.780Z,0
2023-01-19T01:14:33.540Z,0
2023-01-19T01:16:17.200Z,0
2023-01-19T01:18:00.933Z,0
2023-01-19T01:19:44.428Z,0
2023-01-19T01:21:28.288Z,0
2023-01-19T01:23:11.970Z,0
2023-01-19T01:24:55.525Z,0
2023-01-19T01:26:39.355Z,0
2023-01-19T01:28:23.057Z,0
2023-01-19T01:30:06.747Z,0
2023-01-19T01:31:50.498Z,0
2023-01-19T01:33:34.144Z,0
2023-01-19T01:35:17.933Z,0
2023-01-19T01:37:01.622Z,0
2023-01-19T01:38:45.328Z,0
2023-01-19T01:40:28.990Z,0
2023-01-19T01:42:12.531Z,0
2023-01-19T01:43:56.434Z,0
2023-01-19T01:45:40.175Z,0
2023-01-19T01:47:23.772Z,0
2023-01-19T01:49:07.584Z,0
2023-01-19T01:50:51.153Z,0
2023-01-19T01:52:34.713Z,0
2023-01-19T01:54:18.611Z,0
2023-01-19T01:56:02.326Z,0
2023-01-19T01:57:45.972Z,0
2023-01-19T01:59:29.737Z,0
2023-01-19T02:01:13.387Z,0
2023-01-19T02:02:57.113Z,0
2023-01-19T02:04:40.804Z,0
2023-01-19T02:06:24.477Z,0
2023-01-19T02:08:08.033Z,0
2023-01-19T02:09:51.731Z,0
2023-01-19T02:11:35.409Z,0
2023-01-19T02:15:03.085Z,0
2023-01-19T02:16:46.718Z,0
2023-01-19T02:18:30.429Z,0
2023-01-19T02:20:14.169Z,0
2023-01-19T02:21:57.759Z,0
2023-01-19T02:23:41.421Z,0
2023-01-19T02:25:25.256Z,0
2023-01-19T02:27:08.899Z,0
2023-01-19T02:28:52.567Z,0
2023-01-19T02:30:36.292Z,0
2023-01-19T02:32:20.023Z,0
2023-01-19T02:34:03.522Z,0
2023-01-19T02:35:47.222Z,0
2023-01-19T02:37:31.094Z,0
2023-01-19T02:39:14.831Z,0
2023-01-19T02:40:58.547Z,0
2023-01-19T02:42:42.158Z,0
2023-01-19T02:44:25.923Z,0
2023-01-19T02:46:09.585Z,0
2023-01-19T02:47:53.334Z,0
2023-01-19T02:49:36.833Z,0
2023-01-19T02:51:20.722Z,0
2023-01-19T02:53:04.285Z,0
2023-01-19T02:54:48.120Z,0
2023-01-19T02:56:31.741Z,0
2023-01-19T02:58:15.558Z,0
2023-01-19T02:59:59.155Z,0
2023-01-19T03:01:42.982Z,0
2023-01-19T03:03:26.564Z,0
2023-01-19T03:05:10.355Z,0
2023-01-19T03:06:53.993Z,0
2023-01-19T03:08:37.728Z,1
2023-01-19T03:10:21.341Z,0
2023-01-19T03:12:05.145Z,0
2023-01-19T03:13:48.763Z,0
2023-01-19T03:15:32.509Z,0
2023-01-19T03:17:16.249Z,0
2023-01-19T03:18:59.876Z,0
2023-01-19T03:20:43.540Z,0
2023-01-19T03:22:27.384Z,0
2023-01-19T03:24:11.080Z,0
2023-01-19T03:25:54.747Z,0
2023-01-19T03:27:38.429Z,0
2023-01-19T03:29:22.143Z,0
2023-01-19T03:31:05.764Z,0
2023-01-19T03:32:49.420Z,0
2023-01-19T03:34:33.326Z,0
2023-01-19T03:36:16.821Z,0
2023-01-19T03:38:00.640Z,0
2023-01-19T03:39:44.328Z,0
2023-01-19T03:41:28.110Z,0
2023-01-19T03:43:11.684Z,1
2023-01-19T03:44:55.281Z,0
2023-01-19T03:46:39.125Z,0
2023-01-19T03:48:22.778Z,0
2023-01-19T03:50:06.518Z,0
2023-01-19T03:51:50.231Z,0
2023-01-19T03:53:33.921Z,0
2023-01-19T03:55:17.472Z,0
2023-01-19T03:57:01.317Z,0
2023-01-19T03:58:44.993Z,0
2023-01-19T04:00:28.595Z,0
2023-01-19T04:02:12.436Z,0
2023-01-19T04:03:56.145Z,0
2023-01-19T04:05:39.899Z,0
2023-01-19T04:07:23.576Z,0
2023-01-19T04:09:07.352Z,0
2023-01-19T04:10:51.012Z,0
2023-01-19T04:12:34.543Z,0
2023-01-19T04:14:18.383Z,0
2023-01-19T04:16:02.153Z,0
2023-01-19T04:17:45.874Z,0
2023-01-19T04:19:29.495Z,0
2023-01-19T04:21:13.268Z,0
2023-01-19T04:22:56.888Z,0
2023-01-19T04:24:40.612Z,0
2023-01-19T04:26:24.159Z,0
2023-01-19T04:28:08.009Z,0
2023-01-19T04:29:51.859Z,0
2023-01-19T04:31:35.304Z,0
2023-01-19T04:33:19.102Z,0
2023-01-19T04:35:02.792Z,0
2023-01-19T04:36:46.553Z,1
2023-01-19T04:38:29.992Z,0
2023-01-19T04:40:13.766Z,0
2023-01-19T04:41:57.684Z,0
2023-01-19T04:43:41.370Z,0
2023-01-19T04:45:24.983Z,1
2023-01-19T04:47:08.650Z,0
2023-01-19T04:48:52.416Z,0
2023-01-19T04:50:36.142Z,0
2023-01-19T04:52:19.765Z,0
2023-01-19T04:54:03.489Z,0
2023-01-19T04:55:47.248Z,0
2023-01-19T04:57:30.900Z,0
2023-01-19T04:59:14.627Z,0
2023-01-19T05:00:58.123Z,0
2023-01-19T05:02:41.987Z,0
2023-01-19T05:04:25.874Z,0
2023-01-19T05:06:09.420Z,0
2023-01-19T05:07:53.104Z,0
2023-01-19T05:09:36.775Z,0
2023-01-19T05:11:20.341Z,0
2023-01-19T05:13:04.225Z,0
2023-01-19T05:14:47.917Z,0
2023-01-19T05:16:31.611Z,0
2023-01-19T05:18:15.285Z,0
2023-01-19T05:19:59.075Z,0
2023-01-19T05:21:42.730Z,0
2023-01-19T05:23:26.223Z,0
2023-01-19T05:25:10.244Z,0
2023-01-19T05:26:53.769Z,0
2023-01-19T05:28:37.516Z,0
2023-01-19T05:30:21.207Z,0
2023-01-19T05:32:04.899Z,0
2023-01-19T05:33:48.633Z,0
2023-01-19T05:35:32.357Z,0
2023-01-19T05:37:16.106Z,0
2023-01-19T05:38:59.738Z,0
2023-01-19T05:40:43.245Z,0
2023-01-19T05:42:27.150Z,0
2023-01-19T05:44:10.846Z,0
2023-01-19T05:45:54.467Z,0
2023-01-19T05:47:38.209Z,0
2023-01-19T05:49:21.951Z,0
2023-01-19T05:51:05.651Z,0
2023-01-19T05:52:49.302Z,0
2023-01-19T05:54:33.090Z,0
2023-01-19T05:56:16.766Z,2
2023-01-19T05:58:00.397Z,0
2023-01-19T05:59:43.989Z,0
2023-01-19T06:01:27.881Z,0
2023-01-19T06:03:11.554Z,0
2023-01-19T06:04:55.245Z,0
2023-01-19T06:06:38.751Z,0
2023-01-19T06:08:22.711Z,0
2023-01-19T06:10:06.355Z,0
2023-01-19T06:11:50.033Z,0
2023-01-19T06:13:33.674Z,0
2023-01-19T06:15:17.468Z,0
2023-01-19T06:17:01.188Z,0
2023-01-19T06:18:44.826Z,0
2023-01-19T06:20:28.533Z,0
2023-01-19T06:22:12.217Z,0
2023-01-19T06:23:55.802Z,0
2023-01-19T06:25:39.591Z,0
2023-01-19T06:27:23.404Z,1
2023-01-19T06:29:07.080Z,0
2023-01-19T06:30:50.600Z,0
2023-01-19T06:32:34.395Z,0
2023-01-19T06:34:18.191Z,0
2023-01-19T06:36:01.800Z,0
2023-01-19T06:37:45.607Z,0
2023-01-19T06:39:29.295Z,0
2023-01-19T06:41:13.017Z,0
2023-01-19T06:42:56.638Z,0
2023-01-19T06:44:40.355Z,0
2023-01-19T06:46:23.924Z,0
2023-01-19T06:48:07.762Z,0
2023-01-19T06:49:51.531Z,0
2023-01-19T06:51:35.189Z,0
2023-01-19T06:53:18.712Z,0
2023-01-19T06:55:02.633Z,0
2023-01-19T06:56:46.203Z,0
2023-01-19T06:58:29.977Z,1
2023-01-19T07:00:13.682Z,1
2023-01-19T07:01:57.409Z,1
2023-01-19T07:03:40.997Z,1
2023-01-19T07:05:24.785Z,2
2023-01-19T07:07:08.504Z,2
2023-01-19T07:08:52.039Z,3
2023-01-19T07:10:35.833Z,2
2023-01-19T07:12:19.600Z,3
2023-01-19T07:14:03.163Z,2
2023-01-19T07:15:47.032Z,3
2023-01-19T07:17:30.526Z,3
2023-01-19T07:19:14.282Z,4
2023-01-19T07:20:58.092Z,3
2023-01-19T07:22:41.768Z,4
2023-01-19T07:24:25.546Z,154
2023-01-19T07:26:09.192Z,160
2023-01-19T07:27:52.726Z,171
2023-01-19T07:29:36.575Z,180
2023-01-19T07:31:20.313Z,170
2023-01-19T07:33:03.943Z,173
2023-01-19T07:34:47.676Z,169
2023-01-19T07:36:31.382Z,164
2023-01-19T07:38:15.109Z,179
2023-01-19T07:39:58.767Z,218
2023-01-19T07:41:42.493Z,289
2023-01-19T07:43:26.210Z,322
2023-01-19T07:45:09.900Z,340
2023-01-19T07:46:53.446Z,472
2023-01-19T07:48:37.282Z,651
2023-01-19T07:50:21.019Z,693
2023-01-19T07:52:04.709Z,593
2023-01-19T07:53:48.466Z,575
2023-01-19T07:55:32.146Z,722
2023-01-19T07:57:15.718Z,773
2023-01-19T07:58:59.528Z,596
2023-01-19T08:00:43.166Z,395
2023-01-19T08:02:26.757Z,368
2023-01-19T08:04:10.600Z,365
2023-01-19T08:05:54.345Z,381
2023-01-19T08:07:37.975Z,419
2023-01-19T08:09:21.700Z,504
2023-01-19T08:11:05.415Z,454
2023-01-19T08:12:48.958Z,435
2023-01-19T08:14:32.721Z,459
2023-01-19T08:16:16.404Z,575
2023-01-19T08:18:00.119Z,629
2023-01-19T08:19:43.807Z,707
2023-01-19T08:21:27.575Z,695
2023-01-19T08:23:11.328Z,692
2023-01-19T08:24:54.901Z,711
2023-01-19T08:26:38.624Z,723
2023-01-19T08:28:22.526Z,743
2023-01-19T08:30:05.992Z,756
2023-01-19T08:31:49.741Z,773
2023-01-19T08:33:33.391Z,774
2023-01-19T08:35:17.089Z,773
2023-01-19T08:37:00.787Z,773
2023-01-19T08:38:44.494Z,774
2023-01-19T08:40:28.187Z,773
2023-01-19T08:42:11.929Z,774
2023-01-19T08:43:55.588Z,774
2023-01-19T08:45:39.286Z,774
2023-01-19T08:47:23.012Z,773
2023-01-19T08:49:06.697Z,773
2023-01-19T08:50:50.387Z,773
2023-01-19T08:52:34.098Z,774
2023-01-19T08:54:17.803Z,774
2023-01-19T08:56:01.512Z,774
2023-01-19T08:57:45.223Z,775
2023-01-19T08:59:29.104Z,774
2023-01-19T09:01:12.765Z,774
2023-01-19T09:02:56.425Z,774
2023-01-19T09:04:40.170Z,774
2023-01-19T09:06:23.839Z,774
2023-01-19T09:08:07.515Z,774
2023-01-19T09:09:51.155Z,774
2023-01-19T09:11:34.930Z,774
2023-01-19T09:13:18.538Z,774
2023-01-19T09:15:02.199Z,774
2023-01-19T09:16:45.902Z,773
2023-01-19T09:18:29.624Z,774
2023-01-19T09:20:13.295Z,774
2023-01-19T09:21:57.013Z,774
2023-01-19T09:23:40.747Z,774
2023-01-19T09:25:24.497Z,775
2023-01-19T09:27:08.157Z,774
2023-01-19T09:28:51.932Z,774
2023-01-19T09:30:35.597Z,774
2023-01-19T09:32:19.229Z,774
2023-01-19T09:34:02.928Z,774
2023-01-19T09:35:46.648Z,774
2023-01-19T09:37:30.319Z,774
2023-01-19T09:39:14.047Z,774
2023-01-19T09:40:57.760Z,774
2023-01-19T09:42:41.449Z,773
2023-01-19T09:44:25.133Z,774
2023-01-19T09:46:08.856Z,774
2023-01-19T09:47:52.630Z,774
2023-01-19T09:49:36.247Z,773
2023-01-19T09:53:03.681Z,773
2023-01-19T09:54:47.481Z,774
2023-01-19T09:56:31.059Z,774
2023-01-19T09:58:14.768Z,774
2023-01-19T09:59:58.512Z,774
2023-01-19T10:01:42.218Z,774
2023-01-19T10:03:25.943Z,774
2023-01-19T10:05:09.606Z,774
2023-01-19T10:06:53.341Z,773
2023-01-19T10:08:37.039Z,775
2023-01-19T10:10:20.765Z,774
2023-01-19T10:12:04.431Z,773
2023-01-19T10:13:48.191Z,774
2023-01-19T10:15:31.803Z,774
2023-01-19T10:17:15.503Z,773
2023-01-19T10:18:59.253Z,771
2023-01-19T10:20:42.894Z,775
2023-01-19T10:22:26.676Z,774
2023-01-19T10:24:10.321Z,775
2023-01-19T10:25:54.012Z,774
2023-01-19T10:27:37.719Z,774
2023-01-19T10:29:21.405Z,774
2023-01-19T10:31:05.101Z,774
2023-01-19T10:32:48.971Z,774
2023-01-19T10:34:32.569Z,775
2023-01-19T10:36:16.239Z,774
2023-01-19T10:37:59.963Z,775
2023-01-19T10:39:43.626Z,773
2023-01-19T10:41:27.343Z,774
2023-01-19T10:43:11.021Z,775
2023-01-19T10:44:54.758Z,773
2023-01-19T10:46:38.443Z,772
2023-01-19T10:48:22.156Z,775
2023-01-19T10:50:05.835Z,774
2023-01-19T10:51:49.602Z,775
2023-01-19T10:53:33.231Z,773
2023-01-19T10:55:16.984Z,775
2023-01-19T10:57:00.662Z,775
2023-01-19T10:58:44.360Z,776
2023-01-19T11:00:28.056Z,775
2023-01-19T11:02:11.774Z,775
2023-01-19T11:03:55.460Z,775
2023-01-19T11:05:39.162Z,775
2023-01-19T11:07:22.882Z,775
2023-01-19T11:09:06.577Z,776
2023-01-19T11:10:50.275Z,775
2023-01-19T11:12:34.111Z,775
2023-01-19T11:14:17.699Z,775
2023-01-19T11:16:01.403Z,775
2023-01-19T11:17:45.075Z,775
2023-01-19T11:19:28.783Z,775
2023-01-19T11:21:12.491Z,775
2023-01-19T11:22:56.181Z,775
2023-01-19T11:24:39.899Z,774
2023-01-19T11:26:23.602Z,775
2023-01-19T11:28:07.310Z,775
2023-01-19T11:29:50.989Z,775
2023-01-19T11:31:34.703Z,774
2023-01-19T11:33:18.394Z,774
2023-01-19T11:35:02.084Z,775
2023-01-19T11:36:45.789Z,775
2023-01-19T11:38:29.518Z,775
2023-01-19T11:40:13.253Z,776
2023-01-19T11:41:57.015Z,775
2023-01-19T11:43:40.685Z,775
2023-01-19T11:45:24.346Z,774
2023-01-19T11:47:08.063Z,775
2023-01-19T11:48:51.754Z,775
2023-01-19T11:50:35.464Z,775
2023-01-19T11:52:19.171Z,775
2023-01-19T11:54:02.869Z,773
2023-01-19T11:55:46.583Z,775
2023-01-19T11:57:30.279Z,774
2023-01-19T11:59:13.967Z,775
2023-01-19T12:00:57.665Z,774
2023-01-19T12:02:41.371Z,775
2023-01-19T12:04:25.082Z,775
2023-01-19T12:06:08.804Z,774
2023-01-19T12:07:52.593Z,775
2023-01-19T12:09:36.167Z,774
2023-01-19T12:11:19.865Z,774
2023-01-19T12:13:03.638Z,774
2023-01-19T12:14:47.263Z,775
2023-01-19T12:16:30.953Z,775
2023-01-19T12:18:14.754Z,774
2023-01-19T12:19:58.356Z,775
2023-01-19T12:21:42.086Z,774
2023-01-19T12:23:25.794Z,774
2023-01-19T12:25:09.467Z,775
2023-01-19T12:26:53.181Z,775
2023-01-19T12:28:36.851Z,775
2023-01-19T12:30:20.569Z,774
2023-01-19T12:32:04.264Z,775
2023-01-19T12:33:47.963Z,775
2023-01-19T12:37:15.369Z,776
2023-01-19T12:38:59.063Z,775
2023-01-19T12:42:26.462Z,775
2023-01-19T12:44:10.170Z,774
2023-01-19T12:45:53.879Z,775
2023-01-19T12:47:37.569Z,775
2023-01-19T12:49:21.289Z,774
2023-01-19T12:51:04.965Z,774
2023-01-19T12:52:48.664Z,775
2023-01-19T12:54:32.372Z,775
2023-01-19T12:56:16.077Z,775
2023-01-19T12:57:59.771Z,774
2023-01-19T12:59:43.463Z,775
2023-01-19T13:01:27.173Z,774
2023-01-19T13:03:10.863Z,774
2023-01-19T13:04:54.581Z,737
2023-01-19T13:06:38.286Z,630
2023-01-19T13:08:21.993Z,591
2023-01-19T13:10:05.696Z,616
2023-01-19T13:11:49.381Z,548
2023-01-19T13:13:33.089Z,504
2023-01-19T13:15:16.801Z,476
2023-01-19T13:17:00.487Z,439
2023-01-19T13:18:44.188Z,431
2023-01-19T13:20:27.922Z,412
2023-01-19T13:22:11.625Z,435
2023-01-19T13:23:55.275Z,387
2023-01-19T13:25:38.977Z,428
2023-01-19T13:27:22.694Z,433
2023-01-19T13:29:06.395Z,456
2023-01-19T13:30:50.113Z,462
2023-01-19T13:34:17.507Z,399
2023-01-19T13:36:01.202Z,393
2023-01-19T13:37:44.904Z,414
2023-01-19T13:39:28.660Z,447
2023-01-19T13:41:12.364Z,490
2023-01-19T13:42:56.066Z,516
2023-01-19T13:44:39.760Z,534
2023-01-19T13:46:23.500Z,510
2023-01-19T13:48:07.232Z,507
2023-01-19T13:49:50.863Z,536
2023-01-19T13:51:34.560Z,524
2023-01-19T13:53:18.288Z,515
2023-01-19T13:55:01.985Z,503
2023-01-19T13:56:45.692Z,484
2023-01-19T13:58:29.371Z,460
2023-01-19T14:00:13.044Z,439
2023-01-19T14:01:56.750Z,409
2023-01-19T14:03:40.425Z,398
2023-01-19T14:05:24.152Z,412
2023-01-19T14:07:07.959Z,399
2023-01-19T14:08:51.559Z,377
2023-01-19T14:10:35.256Z,374
2023-01-19T14:12:18.943Z,351
2023-01-19T14:14:02.662Z,321
2023-01-19T14:15:46.362Z,309
2023-01-19T14:17:30.086Z,313
2023-01-19T14:19:13.843Z,332
2023-01-19T14:20:57.479Z,347
2023-01-19T14:22:41.174Z,342
2023-01-19T14:24:24.888Z,345
2023-01-19T14:26:08.586Z,347
2023-01-19T14:27:52.272Z,331
2023-01-19T14:29:36.000Z,324
2023-01-19T14:31:19.684Z,343
2023-01-19T14:33:03.411Z,356
2023-01-19T14:34:47.135Z,375
2023-01-19T14:36:30.785Z,390
2023-01-19T14:38:14.499Z,394
2023-01-19T14:39:58.207Z,397
2023-01-19T14:41:41.925Z,404
2023-01-19T14:43:25.609Z,406
2023-01-19T14:45:09.339Z,409
2023-01-19T14:46:53.010Z,398
2023-01-19T14:48:36.743Z,370
2023-01-19T14:50:20.472Z,351
2023-01-19T14:52:04.170Z,336
2023-01-19T14:53:47.812Z,303
2023-01-19T14:55:31.553Z,277
2023-01-19T14:57:15.258Z,256
2023-01-19T14:58:58.986Z,240
2023-01-19T15:00:42.628Z,233
2023-01-19T15:02:26.331Z,226
2023-01-19T15:04:10.052Z,218
2023-01-19T15:05:53.744Z,199
2023-01-19T15:07:37.421Z,182
2023-01-19T15:09:21.194Z,172
2023-01-19T15:11:04.845Z,172
2023-01-19T15:12:48.537Z,173
2023-01-19T15:14:32.222Z,169
2023-01-19T15:16:15.923Z,8
2023-01-19T15:17:59.644Z,8
2023-01-19T15:19:43.344Z,8
2023-01-19T15:21:27.053Z,8
2023-01-19T15:23:10.737Z,8
2023-01-19T15:24:54.446Z,8
2023-01-19T15:26:38.152Z,7
2023-01-19T15:28:21.843Z,7
2023-01-19T15:30:05.557Z,7
2023-01-19T15:31:49.299Z,6
2023-01-19T15:33:32.982Z,5
2023-01-19T15:35:16.644Z,5
2023-01-19T15:37:00.371Z,5
2023-01-19T15:38:44.073Z,5
2023-01-19T15:40:27.745Z,4
2023-01-19T15:42:11.476Z,3
2023-01-19T15:43:55.164Z,3
2023-01-19T15:45:38.874Z,2
2023-01-19T15:47:22.561Z,3
2023-01-19T15:49:06.340Z,2
2023-01-19T15:50:49.980Z,1
2023-01-19T15:52:33.672Z,1
2023-01-19T15:54:17.408Z,1
2023-01-19T15:56:01.061Z,2
2023-01-19T15:57:44.754Z,1
2023-01-19T15:59:28.475Z,2
2023-01-19T16:01:12.165Z,0
2023-01-19T16:02:55.853Z,1
2023-01-19T16:04:39.566Z,1
2023-01-19T16:06:23.268Z,1
2023-01-19T16:08:06.989Z,0
2023-01-19T16:09:50.682Z,0
2023-01-19T16:11:34.355Z,1
2023-01-19T16:13:18.108Z,0
2023-01-19T16:15:01.845Z,0
2023-01-19T16:16:45.452Z,0
2023-01-19T16:18:29.169Z,1
2023-01-19T16:20:12.875Z,0
2023-01-19T16:21:56.569Z,1
2023-01-19T16:23:40.275Z,0
2023-01-19T16:25:23.963Z,0
2023-01-19T16:27:07.669Z,1
2023-01-19T16:28:51.389Z,0
2023-01-19T16:30:35.132Z,0
2023-01-19T16:32:18.780Z,0
2023-01-19T16:34:02.455Z,0
2023-01-19T16:35:46.181Z,0
2023-01-19T16:37:29.876Z,0
2023-01-19T16:39:13.577Z,0
2023-01-19T16:40:57.271Z,0
2023-01-19T16:42:40.987Z,0
2023-01-19T16:44:24.682Z,0
2023-01-19T16:46:08.378Z,0
2023-01-19T16:47:52.082Z,0
2023-01-19T16:49:35.782Z,0
2023-01-19T16:51:19.505Z,0
2023-01-19T16:53:03.186Z,0
2023-01-19T16:54:46.900Z,0
2023-01-19T16:56:30.697Z,1
2023-01-19T16:58:14.357Z,0
2023-01-19T16:59:58.059Z,0
2023-01-19T17:01:41.740Z,0
2023-01-19T17:03:25.431Z,0
2023-01-19T17:05:09.162Z,0
2023-01-19T17:06:52.887Z,0
2023-01-19T17:08:36.587Z,0
2023-01-19T17:10:20.201Z,0
2023-01-19T17:12:03.926Z,0
2023-01-19T17:13:47.624Z,1
2023-01-19T17:15:31.350Z,0
2023-01-19T17:17:15.026Z,0
2023-01-19T17:18:58.729Z,0
2023-01-19T17:20:42.143Z,0
2023-01-19T17:22:25.851Z,0
2023-01-19T17:24:09.527Z,0
2023-01-19T17:25:53.223Z,0
2023-01-19T17:27:36.931Z,0
2023-01-19T17:29:20.627Z,0
2023-01-19T17:31:04.324Z,0
2023-01-19T17:32:48.063Z,0
2023-01-19T17:34:31.715Z,0
2023-01-19T17:36:15.484Z,0
2023-01-19T17:37:59.133Z,0
2023-01-19T17:39:42.834Z,0
2023-01-19T17:41:26.514Z,0
2023-01-19T17:43:10.228Z,0
2023-01-19T17:44:53.935Z,0
2023-01-19T17:46:37.635Z,1
2023-01-19T17:48:21.335Z,0
2023-01-19T17:50:05.017Z,0
2023-01-19T17:51:48.738Z,0
2023-01-19T17:53:32.447Z,1
2023-01-19T17:55:16.132Z,0
2023-01-19T17:56:59.858Z,0
2023-01-19T17:58:43.566Z,0
2023-01-19T18:00:27.250Z,0
2023-01-19T18:02:10.953Z,0
2023-01-19T18:03:54.674Z,0
2023-01-19T18:05:38.355Z,0
2023-01-19T18:07:22.048Z,0
2023-01-19T18:09:05.756Z,1
2023-01-19T18:10:49.444Z,0
2023-01-19T18:12:33.153Z,1
2023-01-19T18:14:16.846Z,0
2023-01-19T18:16:00.568Z,0
2023-01-19T18:17:44.260Z,0
2023-01-19T18:19:27.965Z,0
2023-01-19T18:21:11.675Z,0
2023-01-19T18:22:55.366Z,0
2023-01-19T18:24:39.053Z,0
2023-01-19T18:26:22.749Z,0
2023-01-19T18:28:06.454Z,0
2023-01-19T18:29:50.157Z,0
2023-01-19T18:31:33.849Z,0
2023-01-19T18:33:17.540Z,0
2023-01-19T18:35:01.273Z,0
2023-01-19T18:36:44.944Z,0
2023-01-19T18:38:28.660Z,0
2023-01-19T18:40:12.373Z,0
2023-01-19T18:41:56.061Z,0
2023-01-19T18:43:39.754Z,0
2023-01-19T18:45:23.462Z,1
2023-01-19T18:47:07.181Z,0
2023-01-19T18:48:50.917Z,0
2023-01-19T18:50:34.585Z,0
2023-01-19T18:52:18.346Z,0
2023-01-19T18:54:01.985Z,0
2023-01-19T18:55:45.683Z,0
2023-01-19T18:57:29.385Z,0
2023-01-19T18:59:13.100Z,0
2023-01-19T19:00:56.790Z,0
2023-01-19T19:02:40.491Z,0
2023-01-19T19:04:24.202Z,0
2023-01-19T19:06:07.912Z,0
2023-01-19T19:07:51.601Z,0
2023-01-19T19:09:35.321Z,0
2023-01-19T19:13:02.699Z,0
2023-01-19T19:14:46.407Z,0
2023-01-19T19:16:30.162Z,0
2023-01-19T19:18:13.828Z,0
2023-01-19T19:19:57.512Z,1
2023-01-19T19:21:41.210Z,0
2023-01-19T19:23:24.915Z,0
2023-01-19T19:25:08.742Z,1
2023-01-19T19:26:52.303Z,0
2023-01-19T19:28:36.030Z,1
2023-01-19T19:30:19.784Z,0
2023-01-19T19:32:03.422Z,0
2023-01-19T19:33:47.184Z,0
2023-01-19T19:35:30.841Z,0
2023-01-19T19:37:14.511Z,0
2023-01-19T19:38:58.225Z,0
2023-01-19T19:40:41.926Z,0
2023-01-19T19:42:25.660Z,0
2023-01-19T19:44:09.355Z,0
2023-01-19T19:45:53.060Z,0
2023-01-19T19:47:36.757Z,0
2023-01-19T19:49:20.467Z,0
2023-01-19T19:51:04.147Z,0
2023-01-19T19:52:47.865Z,0
2023-01-19T19:54:31.554Z,1
2023-01-19T19:56:15.292Z,0
2023-01-19T19:57:58.955Z,0
2023-01-19T19:59:42.679Z,0
2023-01-19T20:01:26.394Z,0
2023-01-19T20:03:10.070Z,0
2023-01-19T20:04:53.754Z,0
2023-01-19T20:06:37.461Z,774
2023-01-19T20:08:21.178Z,774
2023-01-19T20:10:04.877Z,774
2023-01-19T20:11:48.640Z,774
2023-01-19T20:13:32.289Z,774
2023-01-19T20:15:16.037Z,774
2023-01-19T20:16:59.681Z,774
2023-01-19T20:18:43.369Z,774
2023-01-19T20:20:27.083Z,774
2023-01-19T20:22:10.848Z,774
2023-01-19T20:23:54.484Z,774
2023-01-19T20:25:38.186Z,774
2023-01-19T20:27:21.890Z,774
2023-01-19T20:29:05.595Z,774
2023-01-19T20:30:49.294Z,775
2023-01-19T20:32:32.984Z,774
2023-01-19T20:34:16.713Z,772
2023-01-19T20:36:00.388Z,774
2023-01-19T20:37:44.094Z,773
2023-01-19T20:39:27.802Z,774
2023-01-19T20:41:11.482Z,773
2023-01-19T20:42:55.220Z,774
2023-01-19T20:44:38.954Z,774
2023-01-19T20:46:22.598Z,774
2023-01-19T20:48:06.298Z,774
2023-01-19T20:49:50.016Z,774
2023-01-19T20:51:33.702Z,774
2023-01-19T20:53:17.413Z,774
2023-01-19T20:55:01.110Z,775
2023-01-19T20:56:44.819Z,774
2023-01-19T20:58:28.514Z,774
2023-01-19T21:00:12.233Z,774
2023-01-19T21:01:55.930Z,3
2023-01-19T21:03:39.623Z,3
2023-01-19T21:05:23.328Z,1
2023-01-19T21:07:07.104Z,3
2023-01-19T21:08:50.718Z,2
2023-01-19T21:10:34.429Z,2
2023-01-19T21:12:18.129Z,2
2023-01-19T21:14:01.853Z,2
2023-01-19T21:15:45.549Z,774
2023-01-19T21:17:29.225Z,3
2023-01-19T21:19:12.926Z,3
2023-01-19T21:20:56.646Z,3
2023-01-19T21:22:40.326Z,2
2023-01-19T21:24:24.045Z,3
2023-01-19T21:26:07.718Z,2
2023-01-19T21:27:51.467Z,3
2023-01-19T21:29:35.141Z,2
2023-01-19T21:31:18.824Z,2
2023-01-19T21:33:02.547Z,2
2023-01-19T21:34:46.245Z,3
2023-01-19T21:36:29.946Z,2
2023-01-19T21:38:13.624Z,2
2023-01-19T21:39:57.335Z,774
2023-01-19T21:41:41.132Z,60
2023-01-19T21:43:24.793Z,2
2023-01-19T21:45:08.582Z,2
2023-01-19T21:46:52.180Z,3
2023-01-19T21:48:35.907Z,2
2023-01-19T21:50:19.624Z,2
2023-01-19T21:52:03.299Z,2
2023-01-19T21:53:47.027Z,3
2023-01-19T21:55:30.727Z,2
2023-01-19T21:57:14.391Z,2
2023-01-19T21:58:58.172Z,2
2023-01-19T22:00:41.814Z,2
2023-01-19T22:02:25.510Z,3
2023-01-19T22:04:09.204Z,2
2023-01-19T22:05:52.952Z,2
2023-01-19T22:07:36.620Z,2
2023-01-19T22:09:20.317Z,2
2023-01-19T22:11:03.993Z,3
2023-01-19T22:12:47.773Z,3
2023-01-19T22:14:31.404Z,2
2023-01-19T22:16:15.118Z,2
2023-01-19T22:17:58.826Z,2
2023-01-19T22:21:26.174Z,3
2023-01-19T22:23:09.868Z,3
2023-01-19T22:24:53.576Z,2
2023-01-19T22:26:37.273Z,2
2023-01-19T22:28:20.999Z,2
2023-01-19T22:30:04.678Z,3
2023-01-19T22:31:48.373Z,3
2023-01-19T22:33:32.067Z,2
2023-01-19T22:35:15.774Z,3
2023-01-19T22:36:59.468Z,2
2023-01-19T22:38:43.164Z,3
2023-01-19T22:40:26.876Z,2
2023-01-19T22:42:10.602Z,2
2023-01-19T22:43:54.256Z,2
2023-01-19T22:45:37.985Z,3
2023-01-19T22:47:21.667Z,2
2023-01-19T22:49:05.376Z,3
2023-01-19T22:50:49.069Z,2
2023-01-19T22:52:32.788Z,3
2023-01-19T22:54:16.485Z,2
2023-01-19T22:56:00.198Z,2
2023-01-19T22:57:43.859Z,2
2023-01-19T22:59:27.607Z,2
2023-01-19T23:01:11.270Z,2
2023-01-19T23:02:54.986Z,2
2023-01-19T23:04:38.668Z,3
2023-01-19T23:06:22.368Z,62
2023-01-19T23:08:06.073Z,63
2023-01-19T23:09:49.788Z,60
2023-01-19T23:11:33.467Z,62
2023-01-19T23:13:17.182Z,62
2023-01-19T23:15:00.958Z,62
2023-01-19T23:16:44.571Z,1
2023-01-19T23:18:28.271Z,0
2023-01-19T23:20:11.986Z,0
2023-01-19T23:21:55.673Z,0
2023-01-19T23:23:39.388Z,0
2023-01-19T23:25:23.143Z,0
2023-01-19T23:27:06.775Z,0
2023-01-19T23:28:50.498Z,0
2023-01-19T23:30:34.312Z,1
2023-01-19T23:32:17.866Z,0
2023-01-19T23:34:01.572Z,0
2023-01-19T23:35:45.280Z,0
2023-01-19T23:37:28.974Z,0
2023-01-19T23:39:12.706Z,0
2023-01-19T23:40:56.366Z,0
2023-01-19T23:42:40.103Z,0
2023-01-19T23:44:23.776Z,0
2023-01-19T23:46:07.480Z,0
2023-01-19T23:47:51.175Z,0
2023-01-19T23:49:34.883Z,0
2023-01-19T23:51:18.578Z,0
2023-01-19T23:53:02.292Z,0
2023-01-19T23:54:45.996Z,1
2023-01-19T23:56:29.704Z,0
2023-01-19T23:58:13.426Z,0
2023-01-19T23:59:57.101Z,0
